Antioch, TX

12:08 AM CST on December 21, 2014 (GMT -0600)
Amateur Radio Station -- W5RYM | Change Station
CLOSE
Current Station
Personal Weather Station
Location: Joaquin, TX
Elevation: 283 ft
Nearby Weather Stations

Elev 283 ft 31.91 °N, 94.08 °W | Updated 0 second ago

Partly Cloudy
Partly Cloudy
37.0 °F
Feels Like 37 °F
N
0.0
Wind Variable Wind from West
Gusts 0.0 mph

Today
High -- | Low -- °F
--% Chance of Precip.
Yesterday
High -- | Low -- °F
Precip. -- in
7:12 AM 5:16 PM
Waning Crescent, 1% visible
Pressure 30.19 in
Visibility 3.0 miles
Clouds Clear
Windchill 37 °F
Dew Point 35 °F
Humidity 93%
Rainfall 0.00 in
Snow Depth Not available.
UV 0 out of 12
Pollen 2.50 out of 12
Air Quality Not available.
Flu Activity Not available.
METAR KOCH 210555Z AUTO 00000KT 3SM CLR 03/02 A3019 RMK AO1 10080 20030 401300030 57007

More Conditions Fewer Conditions

Pressure 30.19 in
Visibility 3.0 miles
Clouds Clear
Windchill 37 °F
Dew Point 35 °F
Humidity 93%
Rainfall 0.00 in
Snow Depth Not available.
UV 0 out of 12
Pollen 2.50 out of 12
Air Quality Not available.
Flu Activity Not available.
METAR KOCH 210555Z AUTO 00000KT 3SM CLR 03/02 A3019 RMK AO1 10080 20030 401300030 57007

More Conditions Fewer Conditions

10-Day Weather Forecast

Almanac

Astronomy

Dec. 21, 2014 Rise Set
Actual Time
Civil Twilight
Nautical Twilight
Astronomical Twilight
Moon
Length of Visible Light
Length of Day
Tomorrow will be .
, % of the Moon is Illuminated

Today's Extremes

State Highs State Lows

Community

WunderPhotos

Upload Photos

1,779,359 photos uploaded!

WunderBlogs® & News

Nearby

Air Quality

  Air Quality AQ Index Pollutant
Not available.

Snow Depth

Station Depth Elevation

Earthquake Activity

City Distance Mag. Time & Date
Minimum magnitude displayed is 2.5.

Coastal Water Temperatures

Place Temperature

Nearby Weather Stations